Language selection

Features

My Weather Profile Weather Topics  | 

West Coast Haida Gwaii - southern half: Past 24 Hour Conditions

 

Rose Spit

11:00 PM PDT 15 October 2019
Disclaimer

This table is a summary of hourly weather conditions for the past 24 hours.
Please note that these observations might not always be representative of weather conditions over their associated marine area.

Date / Time
(PDT)
Wind(knots) Conditions Visibility(km) Pressure(kPa) Air tempC) Relative humidity(%) Dew pointC)
15 October 2019
23:00 SE 25 gust 32 N/A N/A 99.2 12 98 11
22:00 SSE 32 gust 38 N/A N/A 99.2 12 97 11
21:00 SSE 30 gust 35 N/A N/A 99.1 12 97 11
20:00 SSE 28 gust 34 N/A N/A 99.1 12 97 11
19:00 SSE 27 gust 33 N/A N/A 99.0 12 98 11
18:00 SE 32 N/A N/A 99.0 12 98 11
17:00 SE 35 gust 42 N/A N/A 99.0 11 98 11
16:00 SE 32 gust 38 N/A N/A 99.1 11 98 11
15:00 SE 36 gust 42 N/A N/A 99.1 11 97 11
14:00 SSE 38 gust 44 N/A N/A 99.1 11 97 11
13:00 SSE 30 gust 38 N/A N/A 99.2 11 98 11
12:00 SSE 36 gust 46 N/A N/A 99.2 11 99 11
11:00 SSE 40 gust 46 N/A N/A 99.1 11 100 11
10:00 SSE 41 N/A N/A 99.1 10 100 10
9:00 SE 35 gust 45 N/A N/A 99.3 10 99 10
8:00 SE 37 gust 49 N/A N/A 99.3 11 98 10
7:00 SE 35 gust 43 N/A N/A 99.4 11 98 10
6:00 SSE 40 gust 51 N/A N/A 99.4 11 98 10
5:00 SSE 44 gust 52 N/A N/A 99.4 11 98 10
4:00 SSE 36 gust 48 N/A N/A 99.5 11 98 11
3:00 SSE 43 gust 55 N/A N/A 99.5 11 98 10
2:00 SE 43 gust 53 N/A N/A 99.6 11 99 11
1:00 SE 43 gust 51 N/A N/A 99.6 11 99 10
0:00 SE 43 gust 52 N/A N/A 99.7 10 98 10
14 October 2019
23:00 SE 42 gust 53 N/A N/A 99.7 10 97 10

Zoom-in to make a selection

Map of Pacific - North Coast marine weather areas Middle Nomad - 46004 South Nomad - 46036 Dixon Entrance Central - 46145 South Moresby - 46147 Nanakwa Shoal - 46181 North Hecate Strait - 46183 North Nomad - 46184 South Hecate Strait - 46185 West Sea Otter - 46204 West Dixon Entrance - 46205 East Dellwood - 46207 West Moresby - 46208 Sartine Island Cape St.James Kindakun Rocks Langara Island Masset Municipal Airport Rose Spit Sandspit Airport Bella Bella Airport Bella Coola Airport Bonilla Island Cathedral Point Cumshewa Island Grey Islet Holland Rock Lucy Islands Lightstation Prince Rupert Airport
Legend:
buoy Buoy
land station Land Station

Pacific - North Coast Area

Another Region

What we are doing

Date modified: